sensor_id;sensor_type;location;lat;lon;timestamp;P1;durP1;ratioP1;P2;durP2;ratioP2
54795;SDS011;40693;43.884;20.340;2022-08-19T00:00:12;7.82;;;5.10;;
54795;SDS011;40693;43.884;20.340;2022-08-19T00:02:39;6.88;;;5.47;;
54795;SDS011;40693;43.884;20.340;2022-08-19T00:05:06;7.90;;;5.68;;
54795;SDS011;40693;43.884;20.340;2022-08-19T00:07:33;9.52;;;5.15;;
54795;SDS011;40693;43.884;20.340;2022-08-19T00:09:59;10.50;;;5.63;;
54795;SDS011;40693;43.884;20.340;2022-08-19T00:12:25;9.95;;;4.60;;
54795;SDS011;40693;43.884;20.340;2022-08-19T00:14:51;9.52;;;5.43;;
54795;SDS011;40693;43.884;20.340;2022-08-19T00:17:19;10.57;;;5.55;;
54795;SDS011;40693;43.884;20.340;2022-08-19T00:19:45;10.35;;;5.03;;
54795;SDS011;40693;43.884;20.340;2022-08-19T00:22:10;8.88;;;6.10;;
54795;SDS011;40693;43.884;20.340;2022-08-19T00:24:37;8.43;;;4.82;;
54795;SDS011;40693;43.884;20.340;2022-08-19T00:27:04;8.90;;;5.30;;
54795;SDS011;40693;43.884;20.340;2022-08-19T00:29:30;8.93;;;5.68;;
54795;SDS011;40693;43.884;20.340;2022-08-19T00:31:56;6.57;;;5.28;;
54795;SDS011;40693;43.884;20.340;2022-08-19T00:34:26;8.68;;;5.28;;
54795;SDS011;40693;43.884;20.340;2022-08-19T00:36:57;9.40;;;5.78;;
54795;SDS011;40693;43.884;20.340;2022-08-19T00:39:23;7.45;;;5.25;;
54795;SDS011;40693;43.884;20.340;2022-08-19T00:41:50;13.95;;;5.70;;
54795;SDS011;40693;43.884;20.340;2022-08-19T00:44:26;9.60;;;5.60;;
54795;SDS011;40693;43.884;20.340;2022-08-19T00:46:55;8.15;;;5.20;;
54795;SDS011;40693;43.884;20.340;2022-08-19T00:49:37;10.75;;;6.05;;
54795;SDS011;40693;43.884;20.340;2022-08-19T00:52:15;8.63;;;6.13;;
54795;SDS011;40693;43.884;20.340;2022-08-19T00:54:45;8.82;;;5.70;;
54795;SDS011;40693;43.884;20.340;2022-08-19T00:57:22;8.80;;;5.85;;
54795;SDS011;40693;43.884;20.340;2022-08-19T00:59:52;9.73;;;5.45;;
54795;SDS011;40693;43.884;20.340;2022-08-19T01:02:20;9.68;;;6.68;;
54795;SDS011;40693;43.884;20.340;2022-08-19T01:04:47;9.75;;;6.65;;
54795;SDS011;40693;43.884;20.340;2022-08-19T01:07:13;15.98;;;6.93;;
54795;SDS011;40693;43.884;20.340;2022-08-19T01:09:38;10.20;;;5.30;;
54795;SDS011;40693;43.884;20.340;2022-08-19T01:12:04;8.82;;;5.20;;
54795;SDS011;40693;43.884;20.340;2022-08-19T01:14:30;9.43;;;7.60;;
54795;SDS011;40693;43.884;20.340;2022-08-19T01:16:56;9.52;;;6.13;;
54795;SDS011;40693;43.884;20.340;2022-08-19T01:19:34;9.77;;;5.60;;
54795;SDS011;40693;43.884;20.340;2022-08-19T01:22:17;8.68;;;6.15;;
54795;SDS011;40693;43.884;20.340;2022-08-19T01:24:48;9.75;;;5.43;;
54795;SDS011;40693;43.884;20.340;2022-08-19T01:27:14;10.25;;;7.00;;
54795;SDS011;40693;43.884;20.340;2022-08-19T01:29:41;10.02;;;6.90;;
54795;SDS011;40693;43.884;20.340;2022-08-19T01:32:12;10.00;;;6.93;;
54795;SDS011;40693;43.884;20.340;2022-08-19T01:34:39;10.88;;;7.57;;
54795;SDS011;40693;43.884;20.340;2022-08-19T01:37:06;11.80;;;6.97;;
54795;SDS011;40693;43.884;20.340;2022-08-19T01:39:37;11.65;;;8.27;;
54795;SDS011;40693;43.884;20.340;2022-08-19T01:42:04;12.23;;;9.38;;
54795;SDS011;40693;43.884;20.340;2022-08-19T01:44:49;9.65;;;7.57;;
54795;SDS011;40693;43.884;20.340;2022-08-19T01:47:26;10.63;;;7.30;;
54795;SDS011;40693;43.884;20.340;2022-08-19T01:49:52;12.27;;;7.88;;
54795;SDS011;40693;43.884;20.340;2022-08-19T01:52:18;8.82;;;6.88;;
54795;SDS011;40693;43.884;20.340;2022-08-19T01:54:44;9.98;;;6.90;;
54795;SDS011;40693;43.884;20.340;2022-08-19T01:57:25;12.10;;;7.30;;
54795;SDS011;40693;43.884;20.340;2022-08-19T01:59:51;9.10;;;6.45;;
54795;SDS011;40693;43.884;20.340;2022-08-19T02:02:16;9.85;;;6.47;;
54795;SDS011;40693;43.884;20.340;2022-08-19T02:04:42;8.77;;;6.15;;
54795;SDS011;40693;43.884;20.340;2022-08-19T02:07:11;12.80;;;6.22;;
54795;SDS011;40693;43.884;20.340;2022-08-19T02:09:49;10.07;;;6.20;;
54795;SDS011;40693;43.884;20.340;2022-08-19T02:12:15;10.90;;;6.38;;
54795;SDS011;40693;43.884;20.340;2022-08-19T02:14:44;9.57;;;6.15;;
54795;SDS011;40693;43.884;20.340;2022-08-19T02:17:25;9.52;;;6.72;;
54795;SDS011;40693;43.884;20.340;2022-08-19T02:22:19;11.48;;;6.40;;
54795;SDS011;40693;43.884;20.340;2022-08-19T02:24:54;10.35;;;6.60;;
54795;SDS011;40693;43.884;20.340;2022-08-19T02:27:23;9.32;;;7.30;;
54795;SDS011;40693;43.884;20.340;2022-08-19T02:29:50;14.73;;;7.70;;
54795;SDS011;40693;43.884;20.340;2022-08-19T02:32:31;10.57;;;7.07;;
54795;SDS011;40693;43.884;20.340;2022-08-19T02:35:04;10.10;;;6.75;;
54795;SDS011;40693;43.884;20.340;2022-08-19T02:37:43;9.77;;;7.00;;
54795;SDS011;40693;43.884;20.340;2022-08-19T02:40:31;10.00;;;7.05;;
54795;SDS011;40693;43.884;20.340;2022-08-19T02:43:01;10.75;;;7.45;;
54795;SDS011;40693;43.884;20.340;2022-08-19T02:45:35;13.52;;;6.78;;
54795;SDS011;40693;43.884;20.340;2022-08-19T02:48:03;12.77;;;7.07;;
54795;SDS011;40693;43.884;20.340;2022-08-19T02:50:30;15.98;;;7.28;;
54795;SDS011;40693;43.884;20.340;2022-08-19T02:53:05;9.30;;;7.38;;
54795;SDS011;40693;43.884;20.340;2022-08-19T02:55:32;9.18;;;7.25;;
54795;SDS011;40693;43.884;20.340;2022-08-19T02:57:57;12.95;;;7.60;;
54795;SDS011;40693;43.884;20.340;2022-08-19T03:00:25;10.05;;;7.15;;
54795;SDS011;40693;43.884;20.340;2022-08-19T03:02:57;9.27;;;7.15;;
54795;SDS011;40693;43.884;20.340;2022-08-19T03:05:23;11.80;;;8.18;;
54795;SDS011;40693;43.884;20.340;2022-08-19T03:08:01;9.57;;;7.03;;
54795;SDS011;40693;43.884;20.340;2022-08-19T03:10:28;11.38;;;6.60;;
54795;SDS011;40693;43.884;20.340;2022-08-19T03:12:54;13.07;;;7.47;;
54795;SDS011;40693;43.884;20.340;2022-08-19T03:15:19;9.10;;;6.25;;
54795;SDS011;40693;43.884;20.340;2022-08-19T03:17:54;17.95;;;7.15;;
54795;SDS011;40693;43.884;20.340;2022-08-19T03:20:20;9.80;;;6.45;;
54795;SDS011;40693;43.884;20.340;2022-08-19T03:22:55;10.55;;;6.13;;
54795;SDS011;40693;43.884;20.340;2022-08-19T03:25:21;11.90;;;7.03;;
54795;SDS011;40693;43.884;20.340;2022-08-19T03:27:59;8.48;;;6.70;;
54795;SDS011;40693;43.884;20.340;2022-08-19T03:30:34;8.07;;;7.00;;
54795;SDS011;40693;43.884;20.340;2022-08-19T03:33:03;9.50;;;7.22;;
54795;SDS011;40693;43.884;20.340;2022-08-19T03:35:35;10.15;;;6.78;;
54795;SDS011;40693;43.884;20.340;2022-08-19T03:38:04;11.38;;;7.53;;
54795;SDS011;40693;43.884;20.340;2022-08-19T03:40:31;8.63;;;6.93;;
54795;SDS011;40693;43.884;20.340;2022-08-19T03:43:13;9.20;;;7.47;;
54795;SDS011;40693;43.884;20.340;2022-08-19T03:48:29;16.13;;;7.43;;
54795;SDS011;40693;43.884;20.340;2022-08-19T03:50:56;8.95;;;7.57;;
54795;SDS011;40693;43.884;20.340;2022-08-19T03:53:23;9.25;;;7.10;;
54795;SDS011;40693;43.884;20.340;2022-08-19T03:55:51;13.00;;;8.38;;
54795;SDS011;40693;43.884;20.340;2022-08-19T03:58:18;10.77;;;7.35;;
54795;SDS011;40693;43.884;20.340;2022-08-19T04:00:44;12.95;;;6.65;;
54795;SDS011;40693;43.884;20.340;2022-08-19T04:03:10;9.05;;;6.55;;
54795;SDS011;40693;43.884;20.340;2022-08-19T04:05:36;10.13;;;7.50;;
54795;SDS011;40693;43.884;20.340;2022-08-19T04:08:03;11.70;;;7.40;;
54795;SDS011;40693;43.884;20.340;2022-08-19T04:10:30;9.75;;;7.05;;
54795;SDS011;40693;43.884;20.340;2022-08-19T04:13:00;9.98;;;8.10;;
54795;SDS011;40693;43.884;20.340;2022-08-19T04:18:29;10.88;;;6.95;;
54795;SDS011;40693;43.884;20.340;2022-08-19T04:20:55;9.60;;;6.90;;
54795;SDS011;40693;43.884;20.340;2022-08-19T04:23:22;7.35;;;6.30;;
54795;SDS011;40693;43.884;20.340;2022-08-19T04:25:50;14.10;;;7.00;;
54795;SDS011;40693;43.884;20.340;2022-08-19T04:28:16;9.77;;;7.85;;
54795;SDS011;40693;43.884;20.340;2022-08-19T04:30:43;11.90;;;5.80;;
54795;SDS011;40693;43.884;20.340;2022-08-19T04:33:14;12.20;;;7.13;;
54795;SDS011;40693;43.884;20.340;2022-08-19T04:35:43;12.38;;;7.25;;
54795;SDS011;40693;43.884;20.340;2022-08-19T04:38:10;13.07;;;7.50;;
54795;SDS011;40693;43.884;20.340;2022-08-19T04:40:41;7.72;;;6.65;;
54795;SDS011;40693;43.884;20.340;2022-08-19T04:43:26;11.05;;;7.10;;
54795;SDS011;40693;43.884;20.340;2022-08-19T04:45:52;10.82;;;7.15;;
54795;SDS011;40693;43.884;20.340;2022-08-19T04:48:18;8.80;;;6.93;;
54795;SDS011;40693;43.884;20.340;2022-08-19T04:50:50;14.45;;;7.53;;
54795;SDS011;40693;43.884;20.340;2022-08-19T04:55:53;10.82;;;7.00;;
54795;SDS011;40693;43.884;20.340;2022-08-19T04:58:29;9.45;;;6.95;;
54795;SDS011;40693;43.884;20.340;2022-08-19T05:00:55;12.63;;;6.13;;
54795;SDS011;40693;43.884;20.340;2022-08-19T05:03:20;9.90;;;7.03;;
54795;SDS011;40693;43.884;20.340;2022-08-19T05:05:47;9.65;;;5.97;;
54795;SDS011;40693;43.884;20.340;2022-08-19T05:08:17;9.65;;;6.53;;
54795;SDS011;40693;43.884;20.340;2022-08-19T05:10:46;9.68;;;7.22;;
54795;SDS011;40693;43.884;20.340;2022-08-19T05:13:13;11.93;;;7.13;;
54795;SDS011;40693;43.884;20.340;2022-08-19T05:15:41;12.32;;;7.85;;
54795;SDS011;40693;43.884;20.340;2022-08-19T05:18:08;15.10;;;8.23;;
54795;SDS011;40693;43.884;20.340;2022-08-19T05:21:11;12.43;;;7.32;;
54795;SDS011;40693;43.884;20.340;2022-08-19T05:24:06;12.00;;;8.10;;
54795;SDS011;40693;43.884;20.340;2022-08-19T05:26:51;15.48;;;8.02;;
54795;SDS011;40693;43.884;20.340;2022-08-19T05:29:21;16.05;;;7.85;;
54795;SDS011;40693;43.884;20.340;2022-08-19T05:32:03;10.25;;;6.90;;
54795;SDS011;40693;43.884;20.340;2022-08-19T05:37:57;9.38;;;7.15;;
54795;SDS011;40693;43.884;20.340;2022-08-19T05:40:23;11.40;;;7.00;;
54795;SDS011;40693;43.884;20.340;2022-08-19T05:42:49;13.95;;;7.15;;
54795;SDS011;40693;43.884;20.340;2022-08-19T05:45:14;18.27;;;8.27;;
54795;SDS011;40693;43.884;20.340;2022-08-19T05:47:40;13.13;;;7.07;;
54795;SDS011;40693;43.884;20.340;2022-08-19T05:50:06;13.75;;;7.22;;
54795;SDS011;40693;43.884;20.340;2022-08-19T05:52:32;13.35;;;7.30;;
54795;SDS011;40693;43.884;20.340;2022-08-19T05:54:58;9.60;;;6.95;;
54795;SDS011;40693;43.884;20.340;2022-08-19T05:57:24;12.30;;;7.50;;
54795;SDS011;40693;43.884;20.340;2022-08-19T05:59:50;12.75;;;8.10;;
54795;SDS011;40693;43.884;20.340;2022-08-19T06:02:16;14.50;;;8.25;;
54795;SDS011;40693;43.884;20.340;2022-08-19T06:04:42;16.98;;;9.93;;
54795;SDS011;40693;43.884;20.340;2022-08-19T06:07:08;11.27;;;8.30;;
54795;SDS011;40693;43.884;20.340;2022-08-19T06:09:34;14.00;;;8.05;;
54795;SDS011;40693;43.884;20.340;2022-08-19T06:12:02;14.05;;;8.55;;
54795;SDS011;40693;43.884;20.340;2022-08-19T06:14:31;14.05;;;8.20;;
54795;SDS011;40693;43.884;20.340;2022-08-19T06:16:59;14.68;;;8.02;;
54795;SDS011;40693;43.884;20.340;2022-08-19T06:19:27;13.70;;;7.57;;
54795;SDS011;40693;43.884;20.340;2022-08-19T06:21:58;20.35;;;9.02;;
54795;SDS011;40693;43.884;20.340;2022-08-19T06:24:25;13.68;;;8.00;;
54795;SDS011;40693;43.884;20.340;2022-08-19T06:26:53;11.18;;;8.55;;
54795;SDS011;40693;43.884;20.340;2022-08-19T06:29:23;11.70;;;8.55;;
54795;SDS011;40693;43.884;20.340;2022-08-19T06:31:51;13.93;;;9.45;;
54795;SDS011;40693;43.884;20.340;2022-08-19T06:34:19;17.40;;;9.38;;
54795;SDS011;40693;43.884;20.340;2022-08-19T06:36:47;19.70;;;8.55;;
54795;SDS011;40693;43.884;20.340;2022-08-19T06:39:15;15.95;;;9.40;;
54795;SDS011;40693;43.884;20.340;2022-08-19T06:41:44;17.70;;;9.20;;
54795;SDS011;40693;43.884;20.340;2022-08-19T06:44:12;20.83;;;10.25;;
54795;SDS011;40693;43.884;20.340;2022-08-19T06:46:38;16.75;;;8.32;;
54795;SDS011;40693;43.884;20.340;2022-08-19T06:49:05;19.77;;;8.30;;
54795;SDS011;40693;43.884;20.340;2022-08-19T06:51:38;14.02;;;9.63;;
54795;SDS011;40693;43.884;20.340;2022-08-19T06:54:15;18.98;;;8.73;;
54795;SDS011;40693;43.884;20.340;2022-08-19T06:56:42;13.98;;;9.00;;
54795;SDS011;40693;43.884;20.340;2022-08-19T06:59:10;16.63;;;8.50;;
54795;SDS011;40693;43.884;20.340;2022-08-19T07:01:38;11.57;;;8.85;;
54795;SDS011;40693;43.884;20.340;2022-08-19T07:04:06;12.73;;;8.52;;
54795;SDS011;40693;43.884;20.340;2022-08-19T07:06:33;14.68;;;8.00;;
54795;SDS011;40693;43.884;20.340;2022-08-19T07:09:00;15.32;;;7.80;;
54795;SDS011;40693;43.884;20.340;2022-08-19T07:11:26;12.98;;;7.10;;
54795;SDS011;40693;43.884;20.340;2022-08-19T07:13:52;10.18;;;7.15;;
54795;SDS011;40693;43.884;20.340;2022-08-19T07:16:18;9.73;;;6.30;;
54795;SDS011;40693;43.884;20.340;2022-08-19T07:18:48;9.73;;;7.40;;
54795;SDS011;40693;43.884;20.340;2022-08-19T07:21:20;13.57;;;8.27;;
54795;SDS011;40693;43.884;20.340;2022-08-19T07:23:49;12.13;;;7.32;;
54795;SDS011;40693;43.884;20.340;2022-08-19T07:26:19;12.20;;;7.75;;
54795;SDS011;40693;43.884;20.340;2022-08-19T07:28:47;13.70;;;7.05;;
54795;SDS011;40693;43.884;20.340;2022-08-19T07:31:15;12.80;;;6.63;;
54795;SDS011;40693;43.884;20.340;2022-08-19T07:33:43;10.65;;;6.35;;
54795;SDS011;40693;43.884;20.340;2022-08-19T07:36:11;15.82;;;7.05;;
54795;SDS011;40693;43.884;20.340;2022-08-19T07:38:39;14.75;;;7.07;;
54795;SDS011;40693;43.884;20.340;2022-08-19T07:41:08;12.43;;;7.00;;
54795;SDS011;40693;43.884;20.340;2022-08-19T07:43:36;10.13;;;6.85;;
54795;SDS011;40693;43.884;20.340;2022-08-19T07:46:04;10.63;;;6.95;;
54795;SDS011;40693;43.884;20.340;2022-08-19T07:48:31;12.80;;;7.28;;
54795;SDS011;40693;43.884;20.340;2022-08-19T07:51:00;12.40;;;7.50;;
54795;SDS011;40693;43.884;20.340;2022-08-19T07:53:28;12.18;;;7.80;;
54795;SDS011;40693;43.884;20.340;2022-08-19T07:55:55;12.38;;;7.00;;
54795;SDS011;40693;43.884;20.340;2022-08-19T08:01:37;7.93;;;6.72;;
54795;SDS011;40693;43.884;20.340;2022-08-19T08:04:05;12.73;;;8.15;;
54795;SDS011;40693;43.884;20.340;2022-08-19T08:07:02;8.70;;;6.82;;
54795;SDS011;40693;43.884;20.340;2022-08-19T08:09:48;11.80;;;7.13;;
54795;SDS011;40693;43.884;20.340;2022-08-19T08:12:15;12.82;;;8.02;;
54795;SDS011;40693;43.884;20.340;2022-08-19T08:14:44;11.57;;;8.57;;
54795;SDS011;40693;43.884;20.340;2022-08-19T08:17:12;17.90;;;13.57;;
54795;SDS011;40693;43.884;20.340;2022-08-19T08:19:40;18.90;;;10.20;;
54795;SDS011;40693;43.884;20.340;2022-08-19T08:22:07;12.13;;;9.40;;
54795;SDS011;40693;43.884;20.340;2022-08-19T08:24:54;13.57;;;9.77;;
54795;SDS011;40693;43.884;20.340;2022-08-19T08:27:24;12.40;;;8.93;;
54795;SDS011;40693;43.884;20.340;2022-08-19T08:33:19;12.80;;;8.10;;
54795;SDS011;40693;43.884;20.340;2022-08-19T08:35:47;12.70;;;7.25;;
54795;SDS011;40693;43.884;20.340;2022-08-19T08:43:48;12.93;;;6.90;;
54795;SDS011;40693;43.884;20.340;2022-08-19T08:46:19;12.10;;;6.78;;
54795;SDS011;40693;43.884;20.340;2022-08-19T08:48:56;10.02;;;7.82;;
54795;SDS011;40693;43.884;20.340;2022-08-19T08:51:48;14.63;;;6.32;;
54795;SDS011;40693;43.884;20.340;2022-08-19T08:54:18;8.32;;;6.65;;
54795;SDS011;40693;43.884;20.340;2022-08-19T08:56:48;14.75;;;6.88;;
54795;SDS011;40693;43.884;20.340;2022-08-19T08:59:36;11.80;;;6.78;;
54795;SDS011;40693;43.884;20.340;2022-08-19T09:02:06;9.80;;;6.82;;
54795;SDS011;40693;43.884;20.340;2022-08-19T09:04:33;10.85;;;6.57;;
54795;SDS011;40693;43.884;20.340;2022-08-19T09:10:36;8.43;;;6.22;;
54795;SDS011;40693;43.884;20.340;2022-08-19T09:15:52;11.57;;;6.18;;
54795;SDS011;40693;43.884;20.340;2022-08-19T09:18:26;10.30;;;6.22;;
54795;SDS011;40693;43.884;20.340;2022-08-19T09:21:13;13.20;;;7.60;;
54795;SDS011;40693;43.884;20.340;2022-08-19T09:23:40;9.23;;;7.25;;
54795;SDS011;40693;43.884;20.340;2022-08-19T09:26:11;12.57;;;6.85;;
54795;SDS011;40693;43.884;20.340;2022-08-19T09:31:44;10.40;;;5.82;;
54795;SDS011;40693;43.884;20.340;2022-08-19T09:34:11;12.20;;;6.95;;
54795;SDS011;40693;43.884;20.340;2022-08-19T09:37:34;10.27;;;6.75;;
54795;SDS011;40693;43.884;20.340;2022-08-19T09:40:06;7.10;;;6.03;;
54795;SDS011;40693;43.884;20.340;2022-08-19T09:42:33;9.55;;;6.10;;
54795;SDS011;40693;43.884;20.340;2022-08-19T09:44:59;12.18;;;6.40;;
54795;SDS011;40693;43.884;20.340;2022-08-19T09:47:37;13.90;;;7.25;;
54795;SDS011;40693;43.884;20.340;2022-08-19T09:50:45;10.90;;;6.53;;
54795;SDS011;40693;43.884;20.340;2022-08-19T09:53:10;9.73;;;6.45;;
54795;SDS011;40693;43.884;20.340;2022-08-19T09:55:41;11.80;;;6.47;;
54795;SDS011;40693;43.884;20.340;2022-08-19T09:58:08;13.33;;;6.53;;
54795;SDS011;40693;43.884;20.340;2022-08-19T10:00:37;10.55;;;6.45;;
54795;SDS011;40693;43.884;20.340;2022-08-19T10:03:05;16.25;;;7.53;;
54795;SDS011;40693;43.884;20.340;2022-08-19T10:13:18;11.63;;;6.80;;
54795;SDS011;40693;43.884;20.340;2022-08-19T10:15:56;15.85;;;6.68;;
54795;SDS011;40693;43.884;20.340;2022-08-19T10:18:31;11.60;;;7.18;;
54795;SDS011;40693;43.884;20.340;2022-08-19T10:21:12;15.25;;;7.43;;
54795;SDS011;40693;43.884;20.340;2022-08-19T10:23:53;8.00;;;6.80;;
54795;SDS011;40693;43.884;20.340;2022-08-19T10:26:32;9.52;;;6.70;;
54795;SDS011;40693;43.884;20.340;2022-08-19T10:29:02;14.45;;;7.20;;
54795;SDS011;40693;43.884;20.340;2022-08-19T10:31:51;11.88;;;6.80;;
54795;SDS011;40693;43.884;20.340;2022-08-19T10:34:20;11.27;;;7.03;;
54795;SDS011;40693;43.884;20.340;2022-08-19T10:36:52;11.27;;;6.13;;
54795;SDS011;40693;43.884;20.340;2022-08-19T10:41:56;8.77;;;6.32;;
54795;SDS011;40693;43.884;20.340;2022-08-19T10:44:22;9.98;;;6.47;;
54795;SDS011;40693;43.884;20.340;2022-08-19T10:46:54;11.27;;;6.50;;
54795;SDS011;40693;43.884;20.340;2022-08-19T10:49:20;8.98;;;6.10;;
54795;SDS011;40693;43.884;20.340;2022-08-19T10:52:02;9.35;;;6.00;;
54795;SDS011;40693;43.884;20.340;2022-08-19T10:55:06;17.10;;;6.15;;
54795;SDS011;40693;43.884;20.340;2022-08-19T10:58:03;12.73;;;6.18;;
54795;SDS011;40693;43.884;20.340;2022-08-19T11:00:56;9.95;;;5.53;;
54795;SDS011;40693;43.884;20.340;2022-08-19T11:06:44;13.32;;;6.25;;
54795;SDS011;40693;43.884;20.340;2022-08-19T11:09:26;10.00;;;6.78;;
54795;SDS011;40693;43.884;20.340;2022-08-19T11:12:51;10.75;;;6.32;;
54795;SDS011;40693;43.884;20.340;2022-08-19T11:15:35;13.30;;;6.05;;
54795;SDS011;40693;43.884;20.340;2022-08-19T11:21:58;10.50;;;5.28;;
54795;SDS011;40693;43.884;20.340;2022-08-19T11:24:42;11.63;;;5.93;;
54795;SDS011;40693;43.884;20.340;2022-08-19T11:27:23;8.70;;;5.13;;
54795;SDS011;40693;43.884;20.340;2022-08-19T11:29:48;9.95;;;5.32;;
54795;SDS011;40693;43.884;20.340;2022-08-19T11:32:17;10.07;;;5.97;;
54795;SDS011;40693;43.884;20.340;2022-08-19T11:34:43;9.77;;;5.95;;
54795;SDS011;40693;43.884;20.340;2022-08-19T11:37:09;10.15;;;5.72;;
54795;SDS011;40693;43.884;20.340;2022-08-19T11:39:41;10.60;;;5.45;;
54795;SDS011;40693;43.884;20.340;2022-08-19T11:42:07;11.95;;;5.68;;
54795;SDS011;40693;43.884;20.340;2022-08-19T11:44:51;12.45;;;6.00;;
54795;SDS011;40693;43.884;20.340;2022-08-19T11:47:17;12.93;;;6.20;;
54795;SDS011;40693;43.884;20.340;2022-08-19T11:49:45;10.07;;;5.40;;
54795;SDS011;40693;43.884;20.340;2022-08-19T11:52:11;12.55;;;5.82;;
54795;SDS011;40693;43.884;20.340;2022-08-19T12:00:45;10.88;;;5.13;;
54795;SDS011;40693;43.884;20.340;2022-08-19T12:03:17;10.52;;;4.75;;
54795;SDS011;40693;43.884;20.340;2022-08-19T12:09:19;12.30;;;5.18;;
54795;SDS011;40693;43.884;20.340;2022-08-19T12:11:45;12.90;;;5.28;;
54795;SDS011;40693;43.884;20.340;2022-08-19T12:14:11;13.43;;;5.18;;
54795;SDS011;40693;43.884;20.340;2022-08-19T12:16:39;9.27;;;5.13;;
54795;SDS011;40693;43.884;20.340;2022-08-19T12:19:06;10.57;;;6.03;;
54795;SDS011;40693;43.884;20.340;2022-08-19T12:21:33;11.68;;;5.53;;
54795;SDS011;40693;43.884;20.340;2022-08-19T12:24:00;19.80;;;6.72;;
54795;SDS011;40693;43.884;20.340;2022-08-19T12:26:28;10.65;;;4.65;;
54795;SDS011;40693;43.884;20.340;2022-08-19T12:28:56;11.32;;;4.90;;
54795;SDS011;40693;43.884;20.340;2022-08-19T12:31:24;16.50;;;5.43;;
54795;SDS011;40693;43.884;20.340;2022-08-19T12:33:51;9.63;;;4.82;;
54795;SDS011;40693;43.884;20.340;2022-08-19T12:36:17;10.82;;;5.65;;
54795;SDS011;40693;43.884;20.340;2022-08-19T12:38:43;13.13;;;5.68;;
54795;SDS011;40693;43.884;20.340;2022-08-19T12:41:10;8.85;;;4.95;;
54795;SDS011;40693;43.884;20.340;2022-08-19T12:43:37;14.15;;;6.28;;
54795;SDS011;40693;43.884;20.340;2022-08-19T12:46:03;15.68;;;6.20;;
54795;SDS011;40693;43.884;20.340;2022-08-19T12:48:31;18.63;;;6.18;;
54795;SDS011;40693;43.884;20.340;2022-08-19T12:50:57;13.35;;;6.82;;
54795;SDS011;40693;43.884;20.340;2022-08-19T12:53:23;14.75;;;5.90;;
54795;SDS011;40693;43.884;20.340;2022-08-19T12:55:58;11.77;;;4.95;;
54795;SDS011;40693;43.884;20.340;2022-08-19T12:58:25;12.57;;;5.68;;
54795;SDS011;40693;43.884;20.340;2022-08-19T13:00:52;10.68;;;5.05;;
54795;SDS011;40693;43.884;20.340;2022-08-19T13:03:21;16.05;;;5.93;;
54795;SDS011;40693;43.884;20.340;2022-08-19T13:05:54;9.75;;;5.45;;
54795;SDS011;40693;43.884;20.340;2022-08-19T13:08:20;8.40;;;5.07;;
54795;SDS011;40693;43.884;20.340;2022-08-19T13:11:09;16.98;;;5.75;;
54795;SDS011;40693;43.884;20.340;2022-08-19T13:13:57;16.65;;;5.75;;
54795;SDS011;40693;43.884;20.340;2022-08-19T13:16:32;13.85;;;6.15;;
54795;SDS011;40693;43.884;20.340;2022-08-19T13:19:09;16.85;;;4.72;;
54795;SDS011;40693;43.884;20.340;2022-08-19T13:21:35;13.50;;;6.13;;
54795;SDS011;40693;43.884;20.340;2022-08-19T13:24:01;12.65;;;5.80;;
54795;SDS011;40693;43.884;20.340;2022-08-19T13:26:27;16.27;;;6.50;;
54795;SDS011;40693;43.884;20.340;2022-08-19T13:29:02;11.88;;;6.05;;
54795;SDS011;40693;43.884;20.340;2022-08-19T13:31:50;11.95;;;5.38;;
54795;SDS011;40693;43.884;20.340;2022-08-19T13:34:34;16.77;;;6.90;;
54795;SDS011;40693;43.884;20.340;2022-08-19T13:37:01;15.60;;;6.18;;
54795;SDS011;40693;43.884;20.340;2022-08-19T13:39:30;17.73;;;6.38;;
54795;SDS011;40693;43.884;20.340;2022-08-19T13:42:06;16.75;;;6.00;;
54795;SDS011;40693;43.884;20.340;2022-08-19T13:44:40;15.77;;;6.10;;
54795;SDS011;40693;43.884;20.340;2022-08-19T13:47:09;18.35;;;7.18;;
54795;SDS011;40693;43.884;20.340;2022-08-19T13:49:37;16.63;;;6.45;;
54795;SDS011;40693;43.884;20.340;2022-08-19T13:52:15;11.43;;;6.75;;
54795;SDS011;40693;43.884;20.340;2022-08-19T13:54:41;15.25;;;6.40;;
54795;SDS011;40693;43.884;20.340;2022-08-19T13:57:22;14.05;;;6.00;;
54795;SDS011;40693;43.884;20.340;2022-08-19T13:59:51;20.65;;;6.55;;
54795;SDS011;40693;43.884;20.340;2022-08-19T14:02:17;17.88;;;5.63;;
54795;SDS011;40693;43.884;20.340;2022-08-19T14:04:43;11.73;;;6.40;;
54795;SDS011;40693;43.884;20.340;2022-08-19T14:07:09;12.45;;;6.03;;
54795;SDS011;40693;43.884;20.340;2022-08-19T14:09:35;14.93;;;6.70;;
54795;SDS011;40693;43.884;20.340;2022-08-19T14:12:01;16.67;;;6.25;;
54795;SDS011;40693;43.884;20.340;2022-08-19T14:14:26;15.13;;;6.20;;
54795;SDS011;40693;43.884;20.340;2022-08-19T14:16:54;14.65;;;6.72;;
54795;SDS011;40693;43.884;20.340;2022-08-19T14:19:19;17.05;;;6.47;;
54795;SDS011;40693;43.884;20.340;2022-08-19T14:21:46;18.48;;;6.93;;
54795;SDS011;40693;43.884;20.340;2022-08-19T14:24:12;21.73;;;6.82;;
54795;SDS011;40693;43.884;20.340;2022-08-19T14:26:39;15.70;;;7.07;;
54795;SDS011;40693;43.884;20.340;2022-08-19T14:29:05;17.85;;;7.55;;
54795;SDS011;40693;43.884;20.340;2022-08-19T14:31:31;20.45;;;7.95;;
54795;SDS011;40693;43.884;20.340;2022-08-19T14:33:57;13.73;;;6.50;;
54795;SDS011;40693;43.884;20.340;2022-08-19T14:36:24;18.85;;;7.28;;
54795;SDS011;40693;43.884;20.340;2022-08-19T14:38:49;17.13;;;7.80;;
54795;SDS011;40693;43.884;20.340;2022-08-19T14:41:18;20.67;;;7.18;;
54795;SDS011;40693;43.884;20.340;2022-08-19T14:43:47;15.85;;;6.50;;
54795;SDS011;40693;43.884;20.340;2022-08-19T14:46:15;12.38;;;6.10;;
54795;SDS011;40693;43.884;20.340;2022-08-19T14:48:46;11.32;;;5.97;;
54795;SDS011;40693;43.884;20.340;2022-08-19T14:51:13;15.07;;;6.57;;
54795;SDS011;40693;43.884;20.340;2022-08-19T14:53:39;16.00;;;6.63;;
54795;SDS011;40693;43.884;20.340;2022-08-19T14:56:10;20.45;;;6.80;;
54795;SDS011;40693;43.884;20.340;2022-08-19T14:58:40;18.50;;;6.75;;
54795;SDS011;40693;43.884;20.340;2022-08-19T15:01:07;17.33;;;6.18;;
54795;SDS011;40693;43.884;20.340;2022-08-19T15:03:37;22.75;;;7.00;;
54795;SDS011;40693;43.884;20.340;2022-08-19T15:06:05;15.13;;;6.35;;
54795;SDS011;40693;43.884;20.340;2022-08-19T15:08:33;20.67;;;7.50;;
54795;SDS011;40693;43.884;20.340;2022-08-19T15:11:02;27.25;;;8.43;;
54795;SDS011;40693;43.884;20.340;2022-08-19T15:13:38;29.60;;;8.93;;
54795;SDS011;40693;43.884;20.340;2022-08-19T15:22:49;23.02;;;9.18;;
54795;SDS011;40693;43.884;20.340;2022-08-19T15:25:16;19.42;;;10.05;;
54795;SDS011;40693;43.884;20.340;2022-08-19T15:31:40;23.00;;;8.65;;
54795;SDS011;40693;43.884;20.340;2022-08-19T15:34:06;27.17;;;10.23;;
54795;SDS011;40693;43.884;20.340;2022-08-19T15:36:32;18.75;;;8.27;;
54795;SDS011;40693;43.884;20.340;2022-08-19T15:39:00;26.35;;;10.23;;
54795;SDS011;40693;43.884;20.340;2022-08-19T15:41:28;22.55;;;11.20;;
54795;SDS011;40693;43.884;20.340;2022-08-19T15:43:56;23.98;;;10.10;;
54795;SDS011;40693;43.884;20.340;2022-08-19T15:46:24;23.92;;;11.73;;
54795;SDS011;40693;43.884;20.340;2022-08-19T15:48:52;28.45;;;11.98;;
54795;SDS011;40693;43.884;20.340;2022-08-19T15:51:19;24.15;;;12.25;;
54795;SDS011;40693;43.884;20.340;2022-08-19T15:53:46;21.63;;;11.80;;
54795;SDS011;40693;43.884;20.340;2022-08-19T15:56:13;21.65;;;11.93;;